sensor_id;sensor_type;location;lat;lon;timestamp;pressure;altitude;pressure_sealevel;temperature;humidity
7337;BME280;54510;42.016;23.098;2023-04-10T00:00:16;-21393.59;;;9.41;80.93
7337;BME280;54510;42.016;23.098;2023-04-10T00:02:41;-21393.19;;;9.40;80.66
7337;BME280;54510;42.016;23.098;2023-04-10T00:05:08;-21392.63;;;9.38;80.47
7337;BME280;54510;42.016;23.098;2023-04-10T00:07:34;-21391.25;;;9.33;80.25
7337;BME280;54510;42.016;23.098;2023-04-10T00:09:59;-21390.25;;;9.29;80.47
7337;BME280;54510;42.016;23.098;2023-04-10T00:12:25;-21394.72;;;9.45;80.17
7337;BME280;54510;42.016;23.098;2023-04-10T00:14:50;-21393.59;;;9.41;80.29
7337;BME280;54510;42.016;23.098;2023-04-10T00:17:15;-21395.41;;;9.48;79.77
7337;BME280;54510;42.016;23.098;2023-04-10T00:19:40;-21397.34;;;9.55;79.78
7337;BME280;54510;42.016;23.098;2023-04-10T00:22:06;-21396.94;;;9.54;80.30
7337;BME280;54510;42.016;23.098;2023-04-10T00:24:31;-21389.28;;;9.26;80.86
7337;BME280;54510;42.016;23.098;2023-04-10T00:26:56;-21389.84;;;9.28;80.60
7337;BME280;54510;42.016;23.098;2023-04-10T00:29:22;-21393.19;;;9.40;80.40
7337;BME280;54510;42.016;23.098;2023-04-10T00:31:47;-21396.66;;;9.52;80.79
7337;BME280;54510;42.016;23.098;2023-04-10T00:34:13;-21399.56;;;9.63;80.20
7337;BME280;54510;42.016;23.098;2023-04-10T00:36:40;-21398.47;;;9.59;79.97
7337;BME280;54510;42.016;23.098;2023-04-10T00:39:05;-21395.41;;;9.48;80.19
7337;BME280;54510;42.016;23.098;2023-04-10T00:41:31;-21395.13;;;9.47;79.89
7337;BME280;54510;42.016;23.098;2023-04-10T00:43:57;-21394.56;;;9.45;79.72
7337;BME280;54510;42.016;23.098;2023-04-10T00:46:23;-21392.63;;;9.38;79.61
7337;BME280;54510;42.016;23.098;2023-04-10T00:48:49;-21394.44;;;9.44;80.13
7337;BME280;54510;42.016;23.098;2023-04-10T00:51:14;-21395.97;;;9.50;80.45
7337;BME280;54510;42.016;23.098;2023-04-10T00:53:40;-21400.69;;;9.67;80.33
7337;BME280;54510;42.016;23.098;2023-04-10T00:56:05;-21402.34;;;9.73;80.16
7337;BME280;54510;42.016;23.098;2023-04-10T00:58:31;-21399.56;;;9.63;80.64
7337;BME280;54510;42.016;23.098;2023-04-10T01:00:56;-21395.00;;;9.46;81.00
7337;BME280;54510;42.016;23.098;2023-04-10T01:03:21;-21393.75;;;9.42;81.44
7337;BME280;54510;42.016;23.098;2023-04-10T01:06:35;-21390.13;;;9.29;81.57
7337;BME280;54510;42.016;23.098;2023-04-10T01:16:55;-21395.53;;;9.48;80.94
7337;BME280;54510;42.016;23.098;2023-04-10T01:21:47;-21389.56;;;9.27;80.80
7337;BME280;54510;42.016;23.098;2023-04-10T01:24:18;-21391.53;;;9.34;80.38
7337;BME280;54510;42.016;23.098;2023-04-10T01:29:13;-21391.09;;;9.32;80.86
7337;BME280;54510;42.016;23.098;2023-04-10T01:31:51;-21387.06;;;9.18;80.72
7337;BME280;54510;42.016;23.098;2023-04-10T01:34:22;-21379.69;;;8.91;81.57
7337;BME280;54510;42.016;23.098;2023-04-10T01:36:49;-21384.56;;;9.08;81.51
7337;BME280;54510;42.016;23.098;2023-04-10T01:39:19;-21384.16;;;9.07;81.54
7337;BME280;54510;42.016;23.098;2023-04-10T01:41:45;-21384.00;;;9.06;81.33
7337;BME280;54510;42.016;23.098;2023-04-10T01:44:12;-21382.63;;;9.01;81.37
7337;BME280;54510;42.016;23.098;2023-04-10T01:46:39;-21376.78;;;8.80;81.87
7337;BME280;54510;42.016;23.098;2023-04-10T01:49:04;-21379.28;;;8.89;81.99
7337;BME280;54510;42.016;23.098;2023-04-10T01:51:30;-21379.41;;;8.90;82.04
7337;BME280;54510;42.016;23.098;2023-04-10T01:53:56;-21375.38;;;8.75;82.42
7337;BME280;54510;42.016;23.098;2023-04-10T01:56:22;-21374.56;;;8.72;82.43
7337;BME280;54510;42.016;23.098;2023-04-10T01:58:47;-21375.81;;;8.77;82.21
7337;BME280;54510;42.016;23.098;2023-04-10T02:01:20;-21376.50;;;8.79;81.57
7337;BME280;54510;42.016;23.098;2023-04-10T02:03:46;-21378.31;;;8.86;81.60
7337;BME280;54510;42.016;23.098;2023-04-10T02:06:20;-21369.41;;;8.53;81.59
7337;BME280;54510;42.016;23.098;2023-04-10T02:11:48;-21367.88;;;8.48;82.43
7337;BME280;54510;42.016;23.098;2023-04-10T02:14:15;-21366.75;;;8.44;82.52
7337;BME280;54510;42.016;23.098;2023-04-10T02:16:42;-21369.81;;;8.55;82.42
7337;BME280;54510;42.016;23.098;2023-04-10T02:19:09;-21368.16;;;8.49;82.00
7337;BME280;54510;42.016;23.098;2023-04-10T02:21:35;-21366.06;;;8.41;82.09
7337;BME280;54510;42.016;23.098;2023-04-10T02:24:01;-21364.25;;;8.35;82.43
7337;BME280;54510;42.016;23.098;2023-04-10T02:26:26;-21363.00;;;8.30;82.12
7337;BME280;54510;42.016;23.098;2023-04-10T02:28:51;-21361.19;;;8.23;82.91
7337;BME280;54510;42.016;23.098;2023-04-10T02:31:16;-21361.03;;;8.23;82.23
7337;BME280;54510;42.016;23.098;2023-04-10T02:33:42;-21360.50;;;8.21;82.23
7337;BME280;54510;42.016;23.098;2023-04-10T02:36:07;-21361.03;;;8.23;82.17
7337;BME280;54510;42.016;23.098;2023-04-10T02:38:33;-21359.38;;;8.17;82.05
7337;BME280;54510;42.016;23.098;2023-04-10T02:40:58;-21361.03;;;8.23;81.88
7337;BME280;54510;42.016;23.098;2023-04-10T02:43:23;-21357.00;;;8.08;81.89
7337;BME280;54510;42.016;23.098;2023-04-10T02:45:48;-21362.03;;;8.26;81.61
7337;BME280;54510;42.016;23.098;2023-04-10T02:48:14;-21363.97;;;8.33;81.41
7337;BME280;54510;42.016;23.098;2023-04-10T02:50:39;-21363.41;;;8.31;81.06
7337;BME280;54510;42.016;23.098;2023-04-10T02:53:10;-21356.72;;;8.07;81.01
7337;BME280;54510;42.016;23.098;2023-04-10T02:55:35;-21362.03;;;8.26;81.56
7337;BME280;54510;42.016;23.098;2023-04-10T02:58:00;-21364.13;;;8.34;80.74
7337;BME280;54510;42.016;23.098;2023-04-10T03:00:25;-21365.91;;;8.41;80.40
7337;BME280;54510;42.016;23.098;2023-04-10T03:02:51;-21369.53;;;8.54;80.55
7337;BME280;54510;42.016;23.098;2023-04-10T03:05:17;-21372.31;;;8.64;80.27
7337;BME280;54510;42.016;23.098;2023-04-10T03:07:42;-21371.91;;;8.62;79.42
7337;BME280;54510;42.016;23.098;2023-04-10T03:10:08;-21368.84;;;8.51;79.74
7337;BME280;54510;42.016;23.098;2023-04-10T03:12:33;-21370.25;;;8.56;79.87
7337;BME280;54510;42.016;23.098;2023-04-10T03:14:58;-21371.78;;;8.62;80.08
7337;BME280;54510;42.016;23.098;2023-04-10T03:17:24;-21371.91;;;8.62;79.99
7337;BME280;54510;42.016;23.098;2023-04-10T03:19:49;-21373.72;;;8.69;79.63
7337;BME280;54510;42.016;23.098;2023-04-10T03:22:15;-21375.66;;;8.76;79.36
7337;BME280;54510;42.016;23.098;2023-04-10T03:24:40;-21377.19;;;8.82;79.45
7337;BME280;54510;42.016;23.098;2023-04-10T03:27:05;-21370.78;;;8.58;79.26
7337;BME280;54510;42.016;23.098;2023-04-10T03:29:31;-21371.22;;;8.60;79.80
7337;BME280;54510;42.016;23.098;2023-04-10T03:31:56;-21373.72;;;8.69;80.04
7337;BME280;54510;42.016;23.098;2023-04-10T03:34:21;-21383.03;;;9.03;78.92
7337;BME280;54510;42.016;23.098;2023-04-10T03:36:47;-21383.59;;;9.05;77.77
7337;BME280;54510;42.016;23.098;2023-04-10T03:39:12;-21386.50;;;9.16;77.73
7337;BME280;54510;42.016;23.098;2023-04-10T03:41:37;-21384.00;;;9.06;77.09
7337;BME280;54510;42.016;23.098;2023-04-10T03:44:03;-21385.69;;;9.13;77.16
7337;BME280;54510;42.016;23.098;2023-04-10T03:46:28;-21385.81;;;9.13;76.64
7337;BME280;54510;42.016;23.098;2023-04-10T03:48:53;-21389.28;;;9.26;76.77
7337;BME280;54510;42.016;23.098;2023-04-10T03:51:19;-21387.22;;;9.18;76.42
7337;BME280;54510;42.016;23.098;2023-04-10T03:53:44;-21384.28;;;9.07;76.78
7337;BME280;54510;42.016;23.098;2023-04-10T03:56:10;-21382.06;;;8.99;76.66
7337;BME280;54510;42.016;23.098;2023-04-10T03:58:35;-21374.84;;;8.73;77.07
7337;BME280;54510;42.016;23.098;2023-04-10T04:01:00;-21383.03;;;9.03;77.55
7337;BME280;54510;42.016;23.098;2023-04-10T04:03:25;-21384.28;;;9.07;77.03
7337;BME280;54510;42.016;23.098;2023-04-10T04:05:51;-21386.50;;;9.16;77.53
7337;BME280;54510;42.016;23.098;2023-04-10T04:08:16;-21388.47;;;9.23;77.32
7337;BME280;54510;42.016;23.098;2023-04-10T04:10:41;-21382.19;;;9.00;77.23
7337;BME280;54510;42.016;23.098;2023-04-10T04:13:07;-21375.66;;;8.76;78.07
7337;BME280;54510;42.016;23.098;2023-04-10T04:15:32;-21385.97;;;9.14;77.59
7337;BME280;54510;42.016;23.098;2023-04-10T04:17:57;-21388.19;;;9.22;77.20
7337;BME280;54510;42.016;23.098;2023-04-10T04:20:22;-21388.31;;;9.22;76.68
7337;BME280;54510;42.016;23.098;2023-04-10T04:22:48;-21386.22;;;9.15;76.97
7337;BME280;54510;42.016;23.098;2023-04-10T04:25:13;-21388.75;;;9.24;76.52
7337;BME280;54510;42.016;23.098;2023-04-10T04:27:38;-21389.44;;;9.26;76.47
7337;BME280;54510;42.016;23.098;2023-04-10T04:30:04;-21387.91;;;9.21;76.65
7337;BME280;54510;42.016;23.098;2023-04-10T04:32:30;-21390.25;;;9.29;76.00
7337;BME280;54510;42.016;23.098;2023-04-10T04:34:55;-21392.78;;;9.38;75.86
7337;BME280;54510;42.016;23.098;2023-04-10T04:37:20;-21392.34;;;9.37;75.90
7337;BME280;54510;42.016;23.098;2023-04-10T04:39:46;-21391.66;;;9.34;75.96
7337;BME280;54510;42.016;23.098;2023-04-10T04:42:11;-21385.41;;;9.11;76.28
7337;BME280;54510;42.016;23.098;2023-04-10T04:44:36;-21387.06;;;9.18;76.58
7337;BME280;54510;42.016;23.098;2023-04-10T04:47:02;-21392.50;;;9.37;76.38
7337;BME280;54510;42.016;23.098;2023-04-10T04:49:27;-21393.88;;;9.42;75.97
7337;BME280;54510;42.016;23.098;2023-04-10T04:51:52;-21398.88;;;9.61;76.07
7337;BME280;54510;42.016;23.098;2023-04-10T04:54:17;-21396.25;;;9.51;76.16
7337;BME280;54510;42.016;23.098;2023-04-10T04:56:43;-21386.50;;;9.16;77.26
7337;BME280;54510;42.016;23.098;2023-04-10T04:59:08;-21384.00;;;9.06;77.65
7337;BME280;54510;42.016;23.098;2023-04-10T05:01:33;-21391.78;;;9.35;77.39
7337;BME280;54510;42.016;23.098;2023-04-10T05:03:58;-21397.63;;;9.56;76.32
7337;BME280;54510;42.016;23.098;2023-04-10T05:06:24;-21400.41;;;9.66;76.33
7337;BME280;54510;42.016;23.098;2023-04-10T05:08:50;-21403.19;;;9.76;75.95
7337;BME280;54510;42.016;23.098;2023-04-10T05:11:16;-21405.84;;;9.86;75.43
7337;BME280;54510;42.016;23.098;2023-04-10T05:13:42;-21408.88;;;9.97;74.93
7337;BME280;54510;42.016;23.098;2023-04-10T05:16:07;-21407.09;;;9.90;74.41
7337;BME280;54510;42.016;23.098;2023-04-10T05:18:33;-21410.00;;;10.01;74.81
7337;BME280;54510;42.016;23.098;2023-04-10T05:20:59;-21411.25;;;10.06;74.58
7337;BME280;54510;42.016;23.098;2023-04-10T05:23:24;-21413.47;;;10.14;74.64
7337;BME280;54510;42.016;23.098;2023-04-10T05:25:49;-21413.06;;;10.12;74.36
7337;BME280;54510;42.016;23.098;2023-04-10T05:28:15;-21412.91;;;10.12;74.21
7337;BME280;54510;42.016;23.098;2023-04-10T05:30:40;-21415.00;;;10.19;74.17
7337;BME280;54510;42.016;23.098;2023-04-10T05:33:05;-21417.78;;;10.29;73.73
7337;BME280;54510;42.016;23.098;2023-04-10T05:35:30;-21417.09;;;10.27;73.54
7337;BME280;54510;42.016;23.098;2023-04-10T05:37:56;-21417.78;;;10.29;73.18
7337;BME280;54510;42.016;23.098;2023-04-10T05:40:22;-21419.31;;;10.35;73.28
7337;BME280;54510;42.016;23.098;2023-04-10T05:42:48;-21423.88;;;10.52;73.73
7337;BME280;54510;42.016;23.098;2023-04-10T05:45:13;-21427.91;;;10.66;72.85
7337;BME280;54510;42.016;23.098;2023-04-10T05:47:39;-21430.28;;;10.75;72.72
7337;BME280;54510;42.016;23.098;2023-04-10T05:50:04;-21430.56;;;10.76;72.65
7337;BME280;54510;42.016;23.098;2023-04-10T05:52:29;-21432.50;;;10.83;72.93
7337;BME280;54510;42.016;23.098;2023-04-10T05:54:55;-21431.66;;;10.80;73.71
7337;BME280;54510;42.016;23.098;2023-04-10T05:57:20;-21434.31;;;10.90;74.20
7337;BME280;54510;42.016;23.098;2023-04-10T05:59:45;-21435.69;;;10.95;74.24
7337;BME280;54510;42.016;23.098;2023-04-10T06:02:11;-21438.59;;;11.05;73.69
7337;BME280;54510;42.016;23.098;2023-04-10T06:04:36;-21436.53;;;10.98;73.30
7337;BME280;54510;42.016;23.098;2023-04-10T06:07:01;-21431.66;;;10.80;73.70
7337;BME280;54510;42.016;23.098;2023-04-10T06:09:26;-21435.41;;;10.94;74.55
7337;BME280;54510;42.016;23.098;2023-04-10T06:11:52;-21441.09;;;11.15;74.29
7337;BME280;54510;42.016;23.098;2023-04-10T06:14:20;-21444.56;;;11.27;74.62
7337;BME280;54510;42.016;23.098;2023-04-10T06:16:45;-21445.97;;;11.32;73.48
7337;BME280;54510;42.016;23.098;2023-04-10T06:19:11;-21447.06;;;11.36;72.86
7337;BME280;54510;42.016;23.098;2023-04-10T06:21:36;-21452.06;;;11.55;72.69
7337;BME280;54510;42.016;23.098;2023-04-10T06:24:01;-21454.00;;;11.62;71.62
7337;BME280;54510;42.016;23.098;2023-04-10T06:26:26;-21452.34;;;11.56;72.25
7337;BME280;54510;42.016;23.098;2023-04-10T06:28:52;-21459.81;;;11.83;71.16
7337;BME280;54510;42.016;23.098;2023-04-10T06:31:18;-21451.50;;;11.53;71.04
7337;BME280;54510;42.016;23.098;2023-04-10T06:33:43;-21452.34;;;11.56;70.83
7337;BME280;54510;42.016;23.098;2023-04-10T06:36:09;-21455.78;;;11.68;71.00
7337;BME280;54510;42.016;23.098;2023-04-10T06:38:34;-21455.94;;;11.69;71.04
7337;BME280;54510;42.016;23.098;2023-04-10T06:41:02;-21455.09;;;11.66;71.06
7337;BME280;54510;42.016;23.098;2023-04-10T06:43:27;-21455.25;;;11.66;70.45
7337;BME280;54510;42.016;23.098;2023-04-10T06:45:53;-21457.47;;;11.74;70.66
7337;BME280;54510;42.016;23.098;2023-04-10T06:48:18;-21454.84;;;11.65;71.02
7337;BME280;54510;42.016;23.098;2023-04-10T06:50:43;-21457.59;;;11.75;70.68
7337;BME280;54510;42.016;23.098;2023-04-10T06:53:09;-21456.50;;;11.71;70.73
7337;BME280;54510;42.016;23.098;2023-04-10T06:55:34;-21455.66;;;11.68;70.80
7337;BME280;54510;42.016;23.098;2023-04-10T06:58:01;-21459.00;;;11.80;71.02
7337;BME280;54510;42.016;23.098;2023-04-10T07:00:26;-21465.09;;;12.02;70.65
7337;BME280;54510;42.016;23.098;2023-04-10T07:02:52;-21466.19;;;12.06;69.89
7337;BME280;54510;42.016;23.098;2023-04-10T07:05:17;-21468.41;;;12.14;69.83
7337;BME280;54510;42.016;23.098;2023-04-10T07:07:43;-21469.38;;;12.18;69.35
7337;BME280;54510;42.016;23.098;2023-04-10T07:10:08;-21471.75;;;12.26;68.94
7337;BME280;54510;42.016;23.098;2023-04-10T07:12:34;-21470.91;;;12.23;68.92
7337;BME280;54510;42.016;23.098;2023-04-10T07:14:59;-21473.25;;;12.32;69.10
7337;BME280;54510;42.016;23.098;2023-04-10T07:17:24;-21474.50;;;12.37;68.59
7337;BME280;54510;42.016;23.098;2023-04-10T07:19:50;-21474.78;;;12.38;69.45
7337;BME280;54510;42.016;23.098;2023-04-10T07:22:15;-21479.50;;;12.55;69.75
7337;BME280;54510;42.016;23.098;2023-04-10T07:24:40;-21482.53;;;12.66;68.37
7337;BME280;54510;42.016;23.098;2023-04-10T07:27:06;-21483.78;;;12.71;68.45
7337;BME280;54510;42.016;23.098;2023-04-10T07:29:31;-21489.88;;;12.93;67.76
7337;BME280;54510;42.016;23.098;2023-04-10T07:31:56;-21486.41;;;12.80;66.92
7337;BME280;54510;42.016;23.098;2023-04-10T07:34:21;-21484.06;;;12.72;66.67
7337;BME280;54510;42.016;23.098;2023-04-10T07:36:47;-21488.50;;;12.88;67.00
7337;BME280;54510;42.016;23.098;2023-04-10T07:39:13;-21500.25;;;13.31;65.87
7337;BME280;54510;42.016;23.098;2023-04-10T07:41:38;-21505.38;;;13.50;63.92
7337;BME280;54510;42.016;23.098;2023-04-10T07:44:04;-21508.28;;;13.60;62.72
7337;BME280;54510;42.016;23.098;2023-04-10T07:46:29;-21514.50;;;13.83;60.23
7337;BME280;54510;42.016;23.098;2023-04-10T07:48:55;-21523.78;;;14.17;61.36
7337;BME280;54510;42.016;23.098;2023-04-10T07:51:20;-21532.91;;;14.50;60.18
7337;BME280;54510;42.016;23.098;2023-04-10T07:53:46;-21534.84;;;14.57;59.59
7337;BME280;54510;42.016;23.098;2023-04-10T07:56:15;-21536.50;;;14.63;59.95
7337;BME280;54510;42.016;23.098;2023-04-10T07:58:41;-21542.00;;;14.84;58.84
7337;BME280;54510;42.016;23.098;2023-04-10T08:01:06;-21537.03;;;14.66;57.71
7337;BME280;54510;42.016;23.098;2023-04-10T08:03:36;-21534.28;;;14.55;57.24
7337;BME280;54510;42.016;23.098;2023-04-10T08:06:01;-21533.19;;;14.51;57.51
7337;BME280;54510;42.016;23.098;2023-04-10T08:08:27;-21528.88;;;14.36;57.46
7337;BME280;54510;42.016;23.098;2023-04-10T08:10:52;-21529.44;;;14.38;57.18
7337;BME280;54510;42.016;23.098;2023-04-10T08:13:17;-21532.06;;;14.47;56.22
7337;BME280;54510;42.016;23.098;2023-04-10T08:15:42;-21535.25;;;14.59;56.25
7337;BME280;54510;42.016;23.098;2023-04-10T08:18:08;-21544.38;;;14.92;54.25
7337;BME280;54510;42.016;23.098;2023-04-10T08:20:33;-21550.72;;;15.16;53.73
7337;BME280;54510;42.016;23.098;2023-04-10T08:23:01;-21553.88;;;15.27;54.57
7337;BME280;54510;42.016;23.098;2023-04-10T08:25:26;-21540.22;;;14.77;54.50
7337;BME280;54510;42.016;23.098;2023-04-10T08:27:51;-21552.38;;;15.22;54.15
7337;BME280;54510;42.016;23.098;2023-04-10T08:30:16;-21552.91;;;15.24;54.20
7337;BME280;54510;42.016;23.098;2023-04-10T08:32:42;-21560.09;;;15.50;53.44
7337;BME280;54510;42.016;23.098;2023-04-10T08:35:07;-21543.94;;;14.91;53.25
7337;BME280;54510;42.016;23.098;2023-04-10T08:37:32;-21542.56;;;14.86;54.56
7337;BME280;54510;42.016;23.098;2023-04-10T08:39:58;-21546.56;;;15.00;52.90
7337;BME280;54510;42.016;23.098;2023-04-10T08:42:23;-21556.78;;;15.38;51.95
7337;BME280;54510;42.016;23.098;2023-04-10T08:44:50;-21549.47;;;15.11;53.42
7337;BME280;54510;42.016;23.098;2023-04-10T08:47:16;-21550.44;;;15.15;51.32
7337;BME280;54510;42.016;23.098;2023-04-10T08:49:47;-21563.13;;;15.61;51.30
7337;BME280;54510;42.016;23.098;2023-04-10T08:52:17;-21573.75;;;16.00;50.61
7337;BME280;54510;42.016;23.098;2023-04-10T08:54:47;-21574.16;;;16.02;50.23
7337;BME280;54510;42.016;23.098;2023-04-10T08:57:14;-21549.31;;;15.11;51.39
7337;BME280;54510;42.016;23.098;2023-04-10T08:59:42;-21579.28;;;16.20;50.65
7337;BME280;54510;42.016;23.098;2023-04-10T09:02:08;-21543.94;;;14.91;51.85
7337;BME280;54510;42.016;23.098;2023-04-10T09:04:33;-21544.22;;;14.92;49.50
7337;BME280;54510;42.016;23.098;2023-04-10T09:06:59;-21564.25;;;15.65;48.53
7337;BME280;54510;42.016;23.098;2023-04-10T09:09:24;-21554.16;;;15.28;48.28
7337;BME280;54510;42.016;23.098;2023-04-10T09:14:24;-21542.56;;;14.86;50.41
7337;BME280;54510;42.016;23.098;2023-04-10T09:16:52;-21563.81;;;15.64;51.01
7337;BME280;54510;42.016;23.098;2023-04-10T09:19:39;-21589.06;;;16.56;48.03
7337;BME280;54510;42.016;23.098;2023-04-10T09:22:04;-21568.50;;;15.81;47.19
7337;BME280;54510;42.016;23.098;2023-04-10T09:24:29;-21587.81;;;16.52;46.05
7337;BME280;54510;42.016;23.098;2023-04-10T09:26:55;-21566.03;;;15.72;47.23
7337;BME280;54510;42.016;23.098;2023-04-10T09:29:20;-21575.69;;;16.07;47.95
7337;BME280;54510;42.016;23.098;2023-04-10T09:31:45;-21578.31;;;16.17;46.66
7337;BME280;54510;42.016;23.098;2023-04-10T09:34:12;-21572.94;;;15.97;46.26
7337;BME280;54510;42.016;23.098;2023-04-10T09:36:38;-21576.09;;;16.09;46.96
7337;BME280;54510;42.016;23.098;2023-04-10T09:39:05;-21582.28;;;16.32;46.00
7337;BME280;54510;42.016;23.098;2023-04-10T09:41:30;-21567.81;;;15.78;47.01
7337;BME280;54510;42.016;23.098;2023-04-10T09:44:06;-21568.38;;;15.80;48.60
7337;BME280;54510;42.016;23.098;2023-04-10T09:46:31;-21571.69;;;15.93;46.30
7337;BME280;54510;42.016;23.098;2023-04-10T09:48:57;-21552.63;;;15.23;46.57
7337;BME280;54510;42.016;23.098;2023-04-10T09:51:30;-21566.03;;;15.72;46.23
7337;BME280;54510;42.016;23.098;2023-04-10T09:53:56;-21558.84;;;15.46;46.89
7337;BME280;54510;42.016;23.098;2023-04-10T09:56:21;-21569.47;;;15.85;46.57
7337;BME280;54510;42.016;23.098;2023-04-10T09:58:46;-21568.38;;;15.80;45.63
7337;BME280;54510;42.016;23.098;2023-04-10T10:01:12;-21566.31;;;15.73;47.12
7337;BME280;54510;42.016;23.098;2023-04-10T10:03:38;-21586.28;;;16.46;44.40
7337;BME280;54510;42.016;23.098;2023-04-10T10:06:04;-21570.72;;;15.89;45.14
7337;BME280;54510;42.016;23.098;2023-04-10T10:08:30;-21568.09;;;15.79;45.20
7337;BME280;54510;42.016;23.098;2023-04-10T10:10:57;-21585.59;;;16.44;44.33
7337;BME280;54510;42.016;23.098;2023-04-10T10:13:24;-21592.22;;;16.68;43.24
7337;BME280;54510;42.016;23.098;2023-04-10T10:20:43;-21590.72;;;16.63;41.91
7337;BME280;54510;42.016;23.098;2023-04-10T10:23:09;-21610.69;;;17.36;40.81
7337;BME280;54510;42.016;23.098;2023-04-10T10:25:34;-21594.97;;;16.78;40.96
7337;BME280;54510;42.016;23.098;2023-04-10T10:28:01;-21592.78;;;16.70;41.50
7337;BME280;54510;42.016;23.098;2023-04-10T10:30:27;-21571.13;;;15.91;43.96
7337;BME280;54510;42.016;23.098;2023-04-10T10:32:53;-21602.16;;;17.05;43.32
7337;BME280;54510;42.016;23.098;2023-04-10T10:35:18;-21583.69;;;16.37;42.70
7337;BME280;54510;42.016;23.098;2023-04-10T10:37:44;-21566.16;;;15.72;44.24
7337;BME280;54510;42.016;23.098;2023-04-10T10:40:23;-21578.16;;;16.16;43.66
7337;BME280;54510;42.016;23.098;2023-04-10T10:45:33;-21594.97;;;16.78;41.30
7337;BME280;54510;42.016;23.098;2023-04-10T10:48:01;-21611.91;;;17.41;40.05
7337;BME280;54510;42.016;23.098;2023-04-10T10:50:49;-21617.56;;;17.61;38.54
7337;BME280;54510;42.016;23.098;2023-04-10T10:53:47;-21615.50;;;17.54;38.66
7337;BME280;54510;42.016;23.098;2023-04-10T10:58:46;-21625.41;;;17.90;39.17
7337;BME280;54510;42.016;23.098;2023-04-10T11:01:12;-21631.88;;;18.14;39.63
7337;BME280;54510;42.016;23.098;2023-04-10T11:03:37;-21636.53;;;18.31;38.95
7337;BME280;54510;42.016;23.098;2023-04-10T11:06:06;-21624.16;;;17.86;39.72
7337;BME280;54510;42.016;23.098;2023-04-10T11:13:38;-21635.44;;;18.27;37.78
7337;BME280;54510;42.016;23.098;2023-04-10T11:16:05;-21648.09;;;18.74;37.45
7337;BME280;54510;42.016;23.098;2023-04-10T11:23:37;-21611.09;;;17.37;35.51
7337;BME280;54510;42.016;23.098;2023-04-10T11:26:03;-21625.81;;;17.92;36.35
7337;BME280;54510;42.016;23.098;2023-04-10T11:33:42;-21625.00;;;17.89;37.29
7337;BME280;54510;42.016;23.098;2023-04-10T11:36:07;-21609.31;;;17.31;37.41
7337;BME280;54510;42.016;23.098;2023-04-10T11:38:33;-21622.09;;;17.78;37.75
7337;BME280;54510;42.016;23.098;2023-04-10T11:40:59;-21641.06;;;18.48;36.39
7337;BME280;54510;42.016;23.098;2023-04-10T11:43:26;-21653.16;;;18.92;35.02
7337;BME280;54510;42.016;23.098;2023-04-10T11:45:57;-21618.25;;;17.64;36.31
7337;BME280;54510;42.016;23.098;2023-04-10T11:48:23;-21605.59;;;17.17;37.00
7337;BME280;54510;42.016;23.098;2023-04-10T11:50:48;-21612.06;;;17.41;37.35
7337;BME280;54510;42.016;23.098;2023-04-10T11:53:20;-21641.22;;;18.48;35.99
7337;BME280;54510;42.016;23.098;2023-04-10T11:55:45;-21661.94;;;19.25;34.35
7337;BME280;54510;42.016;23.098;2023-04-10T11:58:21;-21668.81;;;19.50;34.76
7337;BME280;54510;42.016;23.098;2023-04-10T12:00:54;-21669.22;;;19.52;33.93
7337;BME280;54510;42.016;23.098;2023-04-10T12:03:29;-21660.16;;;19.18;32.35
7337;BME280;54510;42.016;23.098;2023-04-10T12:05:55;-21674.31;;;19.70;31.53
7337;BME280;54510;42.016;23.098;2023-04-10T12:08:20;-21662.09;;;19.25;31.88
7337;BME280;54510;42.016;23.098;2023-04-10T12:10:45;-21675.28;;;19.74;32.60
7337;BME280;54510;42.016;23.098;2023-04-10T12:13:29;-21690.09;;;20.29;31.71
7337;BME280;54510;42.016;23.098;2023-04-10T12:16:05;-21662.78;;;19.28;32.00
7337;BME280;54510;42.016;23.098;2023-04-10T12:18:31;-21643.97;;;18.59;33.12
7337;BME280;54510;42.016;23.098;2023-04-10T12:20:57;-21660.84;;;19.21;32.47
7337;BME280;54510;42.016;23.098;2023-04-10T12:23:23;-21683.38;;;20.04;31.40
7337;BME280;54510;42.016;23.098;2023-04-10T12:25:49;-21680.75;;;19.94;30.88
7337;BME280;54510;42.016;23.098;2023-04-10T12:28:20;-21684.59;;;20.08;30.92
7337;BME280;54510;42.016;23.098;2023-04-10T12:30:49;-21662.50;;;19.27;31.15
7337;BME280;54510;42.016;23.098;2023-04-10T12:33:20;-21660.44;;;19.19;31.47
7337;BME280;54510;42.016;23.098;2023-04-10T12:35:46;-21685.97;;;20.13;30.48
7337;BME280;54510;42.016;23.098;2023-04-10T12:38:11;-21694.47;;;20.45;30.23
7337;BME280;54510;42.016;23.098;2023-04-10T12:40:37;-21693.09;;;20.40;30.57
7337;BME280;54510;42.016;23.098;2023-04-10T12:43:04;-21698.19;;;20.59;30.47
7337;BME280;54510;42.016;23.098;2023-04-10T12:45:42;-21701.59;;;20.71;30.35
7337;BME280;54510;42.016;23.098;2023-04-10T12:48:07;-21684.88;;;20.09;31.30
7337;BME280;54510;42.016;23.098;2023-04-10T12:50:33;-21660.03;;;19.18;33.55
7337;BME280;54510;42.016;23.098;2023-04-10T12:53:02;-21659.91;;;19.17;33.78
7337;BME280;54510;42.016;23.098;2023-04-10T12:55:27;-21653.72;;;18.94;34.50
7337;BME280;54510;42.016;23.098;2023-04-10T12:57:53;-21654.69;;;18.98;34.01
7337;BME280;54510;42.016;23.098;2023-04-10T13:00:19;-21667.44;;;19.45;33.16
7337;BME280;54510;42.016;23.098;2023-04-10T13:02:45;-21680.06;;;19.92;32.94
7337;BME280;54510;42.016;23.098;2023-04-10T13:05:11;-21655.22;;;19.00;33.03
7337;BME280;54510;42.016;23.098;2023-04-10T13:07:36;-21643.69;;;18.58;34.26
7337;BME280;54510;42.016;23.098;2023-04-10T13:10:02;-21633.66;;;18.21;35.44
7337;BME280;54510;42.016;23.098;2023-04-10T13:12:28;-21630.50;;;18.09;36.55
7337;BME280;54510;42.016;23.098;2023-04-10T13:14:54;-21630.06;;;18.07;34.94
7337;BME280;54510;42.016;23.098;2023-04-10T13:17:20;-21638.31;;;18.38;35.49
7337;BME280;54510;42.016;23.098;2023-04-10T13:19:45;-21630.06;;;18.07;34.76
7337;BME280;54510;42.016;23.098;2023-04-10T13:22:11;-21646.97;;;18.70;34.27
7337;BME280;54510;42.016;23.098;2023-04-10T13:24:36;-21664.28;;;19.33;33.92
7337;BME280;54510;42.016;23.098;2023-04-10T13:27:02;-21653.03;;;18.92;32.91
7337;BME280;54510;42.016;23.098;2023-04-10T13:29:27;-21648.50;;;18.75;33.08
7337;BME280;54510;42.016;23.098;2023-04-10T13:31:53;-21650.41;;;18.82;33.80
7337;BME280;54510;42.016;23.098;2023-04-10T13:34:18;-21659.91;;;19.17;32.82